Time;durP1;ratioP1;P1;durP2;ratioP2;P2;SDS_P1;SDS_P2;PMS_P1;PMS_P2;Temp;Humidity;BMP_temperature;BMP_pressure;BME280_temperature;BME280_humidity;BME280_pressure;Samples;Min_cycle;Max_cycle;Signal;HPM_P1;HPM_P2
2021/11/27 00:01:45;;;;;;;16.27;9.07;;;;;;;;;;4414491;32;20274;-59
2021/11/27 00:04:11;;;;;;;17.13;9.60;;;;;;;;;;4401026;32;20260;-60
2021/11/27 00:06:38;;;;;;;18.53;8.77;;;;;;;;;;4400465;32;20253;-58
2021/11/27 00:09:04;;;;;;;12.73;8.37;;;;;;;;;;4400815;32;20233;-59
2021/11/27 00:11:30;;;;;;;19.13;10.13;;;;;;;;;;4400793;32;20273;-59
2021/11/27 00:13:55;;;;;;;9.00;5.00;;;;;;;;;;4400278;32;20296;-58
2021/11/27 00:16:21;;;;;;;9.53;5.27;;;;;;;;;;4399352;32;20290;-58
2021/11/27 00:18:47;;;;;;;6.07;4.00;;;;;;;;;;4400679;32;20709;-58
2021/11/27 00:21:15;;;;;;;10.23;5.57;;;;;;;;;;4400551;32;20338;-60
2021/11/27 00:23:43;;;;;;;5.87;4.07;;;;;;;;;;4400797;32;20312;-59
2021/11/27 00:26:11;;;;;;;9.70;5.20;;;;;;;;;;4400296;32;20644;-58
2021/11/27 00:28:36;;;;;;;9.00;4.77;;;;;;;;;;4400427;32;20217;-59
2021/11/27 00:31:06;;;;;;;10.87;5.13;;;;;;;;;;4400962;32;20292;-58
2021/11/27 00:33:32;;;;;;;8.00;5.00;;;;;;;;;;4400789;32;20241;-59
2021/11/27 00:35:58;;;;;;;7.30;4.90;;;;;;;;;;4399154;32;20357;-58
2021/11/27 00:38:25;;;;;;;7.13;4.13;;;;;;;;;;4400609;32;20274;-58
2021/11/27 00:40:52;;;;;;;8.20;3.40;;;;;;;;;;4400297;32;20248;-60
2021/11/27 00:43:17;;;;;;;8.73;5.37;;;;;;;;;;4400567;32;20257;-59
2021/11/27 00:45:44;;;;;;;14.80;6.03;;;;;;;;;;4411401;32;20319;-58
2021/11/27 00:48:12;;;;;;;17.63;7.83;;;;;;;;;;4415920;32;20338;-59
2021/11/27 00:50:46;;;;;;;17.57;6.90;;;;;;;;;;4414511;32;20234;-58
2021/11/27 00:53:12;;;;;;;14.80;5.93;;;;;;;;;;4414694;32;20307;-58
2021/11/27 00:55:38;;;;;;;15.83;7.87;;;;;;;;;;4418248;32;20338;-60
2021/11/27 00:58:05;;;;;;;20.17;8.30;;;;;;;;;;4418802;32;20667;-58
2021/11/27 01:00:34;;;;;;;13.23;6.30;;;;;;;;;;4418763;32;20296;-59
2021/11/27 01:03:03;;;;;;;9.90;6.40;;;;;;;;;;4418246;32;20245;-59
2021/11/27 01:05:30;;;;;;;13.70;6.70;;;;;;;;;;4418881;32;20225;-59
2021/11/27 01:07:56;;;;;;;9.60;4.47;;;;;;;;;;4418783;32;20849;-59
2021/11/27 01:10:26;;;;;;;5.00;3.53;;;;;;;;;;4418191;32;20273;-60
2021/11/27 01:12:52;;;;;;;2.67;2.23;;;;;;;;;;4417935;32;20582;-58
2021/11/27 01:15:22;;;;;;;3.80;2.03;;;;;;;;;;4416855;32;20288;-58
2021/11/27 01:17:50;;;;;;;2.40;2.07;;;;;;;;;;4417884;32;20239;-58
2021/11/27 01:20:26;;;;;;;2.83;1.97;;;;;;;;;;4418059;32;20221;-57
2021/11/27 01:22:52;;;;;;;4.30;1.60;;;;;;;;;;4402460;32;20623;-59
2021/11/27 01:25:18;;;;;;;2.33;1.90;;;;;;;;;;4402692;32;20735;-60
2021/11/27 01:27:47;;;;;;;1.83;1.53;;;;;;;;;;4402968;32;20263;-58
2021/11/27 01:30:13;;;;;;;1.90;1.70;;;;;;;;;;4402843;32;20240;-60
2021/11/27 01:32:40;;;;;;;4.40;2.47;;;;;;;;;;4402666;32;20209;-58
2021/11/27 01:35:06;;;;;;;2.00;1.80;;;;;;;;;;4402334;32;20274;-57
2021/11/27 01:37:33;;;;;;;2.67;1.40;;;;;;;;;;4402319;32;20244;-58
2021/11/27 01:40:00;;;;;;;2.27;1.57;;;;;;;;;;4402236;32;20272;-59
2021/11/27 01:42:25;;;;;;;1.80;1.60;;;;;;;;;;4402494;32;20552;-58
2021/11/27 01:44:51;;;;;;;2.77;1.60;;;;;;;;;;4407340;32;20271;-58
2021/11/27 01:47:16;;;;;;;9.90;2.37;;;;;;;;;;4417700;32;20216;-58
2021/11/27 01:49:42;;;;;;;2.90;1.53;;;;;;;;;;4417916;32;20731;-58
2021/11/27 01:52:08;;;;;;;2.37;1.40;;;;;;;;;;4413775;32;20237;-57
2021/11/27 01:54:34;;;;;;;2.30;1.87;;;;;;;;;;4401894;32;20612;-58
2021/11/27 01:57:02;;;;;;;2.20;1.70;;;;;;;;;;4402191;32;20275;-58
2021/11/27 01:59:30;;;;;;;1.87;1.67;;;;;;;;;;4402462;32;20226;-58
2021/11/27 02:01:57;;;;;;;3.80;2.00;;;;;;;;;;4408291;32;20284;-59
2021/11/27 02:04:25;;;;;;;3.57;1.73;;;;;;;;;;4416248;32;20233;-58
2021/11/27 02:06:51;;;;;;;5.03;2.43;;;;;;;;;;4416696;32;20296;-58
2021/11/27 02:09:23;;;;;;;2.03;1.50;;;;;;;;;;4417256;32;20551;-57
2021/11/27 02:11:51;;;;;;;7.43;2.30;;;;;;;;;;4417136;32;20209;-58
2021/11/27 02:14:17;;;;;;;2.67;1.90;;;;;;;;;;4417207;32;20677;-58
2021/11/27 02:16:45;;;;;;;3.37;1.90;;;;;;;;;;4412052;32;20700;-59
2021/11/27 02:19:11;;;;;;;2.70;1.90;;;;;;;;;;4416922;32;20316;-59
2021/11/27 02:21:36;;;;;;;10.60;1.33;;;;;;;;;;4428647;32;20381;-59
2021/11/27 02:24:02;;;;;;;2.17;1.20;;;;;;;;;;4416803;32;20310;-58
2021/11/27 02:26:32;;;;;;;2.30;1.60;;;;;;;;;;4417158;32;20676;-59
2021/11/27 02:29:08;;;;;;;3.27;2.00;;;;;;;;;;4417248;32;20331;-58
2021/11/27 02:31:34;;;;;;;2.80;1.67;;;;;;;;;;4415761;32;20676;-58
2021/11/27 02:34:00;;;;;;;2.93;1.70;;;;;;;;;;4417143;32;20296;-57
2021/11/27 02:36:27;;;;;;;2.23;1.47;;;;;;;;;;4416991;32;20327;-58
2021/11/27 02:38:58;;;;;;;5.27;1.83;;;;;;;;;;4416992;32;20224;-58
2021/11/27 02:41:23;;;;;;;1.77;1.10;;;;;;;;;;4416886;32;20593;-57
2021/11/27 02:43:49;;;;;;;1.90;1.37;;;;;;;;;;4417160;32;20402;-59
2021/11/27 02:46:15;;;;;;;3.23;1.50;;;;;;;;;;4428275;32;20319;-58
2021/11/27 02:48:41;;;;;;;7.90;1.83;;;;;;;;;;4416709;32;21022;-59
2021/11/27 02:51:06;;;;;;;2.70;1.67;;;;;;;;;;4416653;32;20296;-57
2021/11/27 02:53:32;;;;;;;4.27;1.70;;;;;;;;;;4415498;32;20260;-59
2021/11/27 02:55:58;;;;;;;3.03;1.53;;;;;;;;;;4415515;32;20426;-58
2021/11/27 02:58:23;;;;;;;2.70;1.67;;;;;;;;;;4416732;32;20229;-59
2021/11/27 03:00:51;;;;;;;1.50;1.40;;;;;;;;;;4416855;32;20281;-58
2021/11/27 03:03:16;;;;;;;1.77;1.67;;;;;;;;;;4415910;32;20329;-58
2021/11/27 03:05:42;;;;;;;2.63;1.27;;;;;;;;;;4416371;32;20268;-58
2021/11/27 03:08:07;;;;;;;7.40;1.43;;;;;;;;;;4410235;32;20229;-57
2021/11/27 03:10:33;;;;;;;2.20;1.70;;;;;;;;;;4401649;32;20280;-57
2021/11/27 03:12:59;;;;;;;2.43;1.70;;;;;;;;;;4401558;32;20298;-58
2021/11/27 03:15:24;;;;;;;1.60;1.50;;;;;;;;;;4416316;32;20296;-59
2021/11/27 03:17:50;;;;;;;2.90;1.67;;;;;;;;;;4416399;32;20288;-58
2021/11/27 03:20:18;;;;;;;1.73;1.40;;;;;;;;;;4415223;32;20327;-59
2021/11/27 03:22:44;;;;;;;2.10;1.63;;;;;;;;;;4416114;32;20217;-58
2021/11/27 03:25:11;;;;;;;2.00;1.80;;;;;;;;;;4416558;32;20307;-57
2021/11/27 03:27:41;;;;;;;1.83;1.50;;;;;;;;;;4416635;32;20268;-58
2021/11/27 03:30:11;;;;;;;1.93;1.57;;;;;;;;;;4416977;32;20228;-59
2021/11/27 03:32:37;;;;;;;6.53;2.07;;;;;;;;;;4416112;32;20303;-59
2021/11/27 03:35:04;;;;;;;3.23;1.63;;;;;;;;;;4416318;32;20341;-58
2021/11/27 03:37:29;;;;;;;2.47;1.40;;;;;;;;;;4416370;32;20273;-57
2021/11/27 03:39:55;;;;;;;1.70;1.53;;;;;;;;;;4416123;32;20297;-57
2021/11/27 03:42:20;;;;;;;3.23;2.00;;;;;;;;;;4416646;32;20616;-58
2021/11/27 03:44:47;;;;;;;5.87;1.83;;;;;;;;;;4399972;32;20249;-58
2021/11/27 03:47:13;;;;;;;4.37;1.97;;;;;;;;;;4399778;32;20375;-58
2021/11/27 03:49:39;;;;;;;2.63;1.70;;;;;;;;;;4401287;32;20218;-58
2021/11/27 03:52:05;;;;;;;1.90;1.50;;;;;;;;;;4406386;32;20218;-58
2021/11/27 03:54:31;;;;;;;1.73;1.50;;;;;;;;;;4414705;32;20260;-58
2021/11/27 03:56:57;;;;;;;3.23;1.80;;;;;;;;;;4416000;32;20782;-57
2021/11/27 03:59:23;;;;;;;6.60;2.03;;;;;;;;;;4416628;32;20278;-59
2021/11/27 04:01:49;;;;;;;1.83;1.70;;;;;;;;;;4415513;32;20236;-59
2021/11/27 04:04:15;;;;;;;2.17;1.43;;;;;;;;;;4416031;32;20224;-59
2021/11/27 04:06:41;;;;;;;1.87;1.70;;;;;;;;;;4415792;32;20880;-58
2021/11/27 04:09:09;;;;;;;2.97;2.20;;;;;;;;;;4415957;32;20267;-59
2021/11/27 04:11:37;;;;;;;1.90;1.70;;;;;;;;;;4415128;32;20423;-58
2021/11/27 04:14:03;;;;;;;2.90;1.50;;;;;;;;;;4412278;32;20230;-58
2021/11/27 04:16:29;;;;;;;3.20;1.90;;;;;;;;;;4399695;32;20241;-57
2021/11/27 04:18:54;;;;;;;2.10;1.80;;;;;;;;;;4400977;32;20520;-59
2021/11/27 04:21:20;;;;;;;2.77;1.60;;;;;;;;;;4400764;32;20251;-58
2021/11/27 04:23:47;;;;;;;4.90;2.10;;;;;;;;;;4400795;32;20581;-58
2021/11/27 04:26:13;;;;;;;1.97;1.60;;;;;;;;;;4399912;32;20689;-58
2021/11/27 04:28:39;;;;;;;4.70;2.70;;;;;;;;;;4401202;32;20222;-59
2021/11/27 04:31:04;;;;;;;2.10;1.57;;;;;;;;;;4403994;32;20268;-58
2021/11/27 04:33:30;;;;;;;3.63;1.77;;;;;;;;;;4402392;32;20677;-58
2021/11/27 04:35:56;;;;;;;2.67;1.70;;;;;;;;;;4403816;32;20404;-58
2021/11/27 04:38:22;;;;;;;3.57;1.77;;;;;;;;;;4411692;32;20248;-58
2021/11/27 04:40:50;;;;;;;3.43;1.90;;;;;;;;;;4403814;32;20296;-60
2021/11/27 04:43:17;;;;;;;5.60;2.00;;;;;;;;;;4403494;32;20398;-59
2021/11/27 04:45:43;;;;;;;4.30;1.60;;;;;;;;;;4403286;32;20225;-58
2021/11/27 04:48:09;;;;;;;2.70;1.73;;;;;;;;;;4402528;32;20234;-58
2021/11/27 04:50:36;;;;;;;2.80;1.97;;;;;;;;;;4407871;32;20696;-59
2021/11/27 04:53:03;;;;;;;10.60;6.10;;;;;;;;;;4417409;32;20232;-59
2021/11/27 04:55:29;;;;;;;28.50;10.83;;;;;;;;;;4419045;32;20543;-58
2021/11/27 04:57:54;;;;;;;18.43;9.47;;;;;;;;;;4418691;32;20201;-58
2021/11/27 05:00:29;;;;;;;18.97;10.00;;;;;;;;;;4419050;32;20304;-59
2021/11/27 05:02:54;;;;;;;6.67;3.27;;;;;;;;;;4417788;32;20246;-57
2021/11/27 05:05:22;;;;;;;8.73;2.87;;;;;;;;;;4418945;32;20293;-58
2021/11/27 05:07:47;;;;;;;1.40;1.30;;;;;;;;;;4417973;32;20213;-59
2021/11/27 05:10:13;;;;;;;3.47;2.20;;;;;;;;;;4418642;32;20383;-59
2021/11/27 05:12:39;;;;;;;28.43;16.97;;;;;;;;;;4418225;32;20243;-58
2021/11/27 05:15:06;;;;;;;23.17;13.43;;;;;;;;;;4418339;32;20272;-61
2021/11/27 05:17:32;;;;;;;8.07;4.10;;;;;;;;;;4418242;32;20268;-59
2021/11/27 05:19:58;;;;;;;9.97;6.40;;;;;;;;;;4416961;32;20353;-59
2021/11/27 05:22:23;;;;;;;5.37;3.60;;;;;;;;;;4416697;32;20225;-59
2021/11/27 05:24:49;;;;;;;18.03;8.97;;;;;;;;;;4418318;32;20287;-58
2021/11/27 05:27:17;;;;;;;14.30;7.93;;;;;;;;;;4418137;32;20240;-59
2021/11/27 05:29:43;;;;;;;14.23;7.40;;;;;;;;;;4418258;32;20283;-60
2021/11/27 05:32:20;;;;;;;15.20;6.17;;;;;;;;;;4418208;32;20706;-58
2021/11/27 05:34:46;;;;;;;18.00;8.93;;;;;;;;;;4416706;32;20233;-58
2021/11/27 05:37:12;;;;;;;23.03;14.00;;;;;;;;;;4418180;32;20236;-58
2021/11/27 05:39:37;;;;;;;23.50;13.50;;;;;;;;;;4418060;32;20288;-59
2021/11/27 05:42:03;;;;;;;25.13;13.50;;;;;;;;;;4417228;32;20256;-58
2021/11/27 05:44:29;;;;;;;23.63;13.43;;;;;;;;;;4418027;32;20214;-59
2021/11/27 05:46:54;;;;;;;35.37;15.97;;;;;;;;;;4419759;32;20331;-59
2021/11/27 05:49:20;;;;;;;32.17;18.57;;;;;;;;;;4418514;32;20905;-58
2021/11/27 05:51:45;;;;;;;53.47;19.57;;;;;;;;;;4418485;32;20231;-59
2021/11/27 05:54:11;;;;;;;38.93;18.43;;;;;;;;;;4418642;32;20259;-59
2021/11/27 05:56:36;;;;;;;31.30;17.33;;;;;;;;;;4418009;32;20273;-59
2021/11/27 05:59:02;;;;;;;29.17;15.13;;;;;;;;;;4417484;32;20359;-59
2021/11/27 06:01:27;;;;;;;32.20;18.10;;;;;;;;;;4419226;32;20247;-59
2021/11/27 06:03:53;;;;;;;37.63;23.53;;;;;;;;;;4405133;32;20666;-59
2021/11/27 06:06:18;;;;;;;31.80;17.20;;;;;;;;;;4404331;32;20251;-59
2021/11/27 06:08:44;;;;;;;25.57;15.57;;;;;;;;;;4403116;32;20233;-58
2021/11/27 06:11:09;;;;;;;34.20;18.47;;;;;;;;;;4404239;32;20261;-59
2021/11/27 06:13:34;;;;;;;29.13;18.63;;;;;;;;;;4404103;32;20319;-61
2021/11/27 06:16:06;;;;;;;35.50;18.47;;;;;;;;;;4404759;32;20361;-59
2021/11/27 06:18:32;;;;;;;38.07;20.40;;;;;;;;;;4404427;32;20657;-58
2021/11/27 06:20:57;;;;;;;44.93;24.17;;;;;;;;;;4404566;32;20268;-58
2021/11/27 06:23:23;;;;;;;50.23;25.50;;;;;;;;;;4402610;32;20264;-58
2021/11/27 06:25:48;;;;;;;34.83;18.90;;;;;;;;;;4402735;32;20304;-59
2021/11/27 06:28:14;;;;;;;7.97;4.60;;;;;;;;;;4403969;32;20551;-59
2021/11/27 06:30:41;;;;;;;4.57;2.90;;;;;;;;;;4402670;32;20304;-58
2021/11/27 06:33:07;;;;;;;7.40;3.33;;;;;;;;;;4403801;32;20308;-58
2021/11/27 06:35:32;;;;;;;3.20;2.83;;;;;;;;;;4403751;32;20291;-59
2021/11/27 06:37:58;;;;;;;7.43;3.20;;;;;;;;;;4403606;32;20256;-58
2021/11/27 06:40:23;;;;;;;3.57;2.90;;;;;;;;;;4403163;32;20241;-58
2021/11/27 06:42:49;;;;;;;5.57;2.60;;;;;;;;;;4402303;32;20231;-58
2021/11/27 06:45:14;;;;;;;5.37;2.77;;;;;;;;;;4411073;32;20349;-59
2021/11/27 06:47:40;;;;;;;8.43;2.97;;;;;;;;;;4417925;32;20273;-59
2021/11/27 06:50:06;;;;;;;2.77;2.57;;;;;;;;;;4417860;32;20364;-58
2021/11/27 06:52:31;;;;;;;5.03;2.93;;;;;;;;;;4418426;32;20229;-60
2021/11/27 06:54:56;;;;;;;5.10;2.93;;;;;;;;;;4418699;32;20815;-58
2021/11/27 06:57:22;;;;;;;2.77;2.37;;;;;;;;;;4418417;32;20235;-58
2021/11/27 06:59:47;;;;;;;3.27;2.30;;;;;;;;;;4416937;32;20212;-57
2021/11/27 07:02:13;;;;;;;3.53;2.30;;;;;;;;;;4415775;32;20261;-57
2021/11/27 07:04:38;;;;;;;2.83;2.00;;;;;;;;;;4417887;32;20257;-59
2021/11/27 07:07:04;;;;;;;4.13;2.53;;;;;;;;;;4413154;32;20308;-58
2021/11/27 07:09:29;;;;;;;3.83;2.17;;;;;;;;;;4404594;32;20650;-59
2021/11/27 07:11:55;;;;;;;8.93;3.27;;;;;;;;;;4418212;32;20224;-58
2021/11/27 07:14:20;;;;;;;3.77;1.73;;;;;;;;;;4417196;32;20340;-59
2021/11/27 07:16:45;;;;;;;5.23;3.03;;;;;;;;;;4418078;32;20240;-58
2021/11/27 07:19:11;;;;;;;5.03;2.63;;;;;;;;;;4412620;32;20933;-57
2021/11/27 07:21:37;;;;;;;7.20;2.60;;;;;;;;;;4401124;32;20275;-59
2021/11/27 07:24:03;;;;;;;3.13;2.20;;;;;;;;;;4401229;32;20252;-58
2021/11/27 07:26:28;;;;;;;2.33;1.23;;;;;;;;;;4401542;32;20675;-58
2021/11/27 07:28:57;;;;;;;1.67;1.50;;;;;;;;;;4402145;32;20735;-58
2021/11/27 07:31:23;;;;;;;3.07;2.57;;;;;;;;;;4402136;32;20218;-58
2021/11/27 07:33:48;;;;;;;2.90;2.13;;;;;;;;;;4403234;32;20459;-59
2021/11/27 07:36:14;;;;;;;4.03;2.50;;;;;;;;;;4411446;32;20627;-57
2021/11/27 07:38:39;;;;;;;6.03;3.40;;;;;;;;;;4418295;32;20310;-58
2021/11/27 07:41:05;;;;;;;3.60;2.13;;;;;;;;;;4418172;32;20295;-58
2021/11/27 07:43:31;;;;;;;6.67;2.87;;;;;;;;;;4418069;32;20324;-58
2021/11/27 07:45:56;;;;;;;5.50;2.97;;;;;;;;;;4418135;32;20446;-58
2021/11/27 07:48:24;;;;;;;6.93;2.77;;;;;;;;;;4418334;32;20225;-58
2021/11/27 07:50:50;;;;;;;3.70;2.20;;;;;;;;;;4417731;32;20213;-59
2021/11/27 07:53:15;;;;;;;4.53;3.07;;;;;;;;;;4418094;32;20324;-60
2021/11/27 07:55:43;;;;;;;4.43;3.03;;;;;;;;;;4417598;32;20343;-59
2021/11/27 07:58:08;;;;;;;18.20;2.97;;;;;;;;;;4416899;32;20558;-58
2021/11/27 08:00:34;;;;;;;3.87;2.40;;;;;;;;;;4416627;32;20684;-58
2021/11/27 08:02:59;;;;;;;5.67;3.10;;;;;;;;;;4408877;32;20257;-57
2021/11/27 08:05:25;;;;;;;2.77;2.17;;;;;;;;;;4405718;32;20339;-58
2021/11/27 08:07:50;;;;;;;4.97;2.77;;;;;;;;;;4420053;32;20472;-58
2021/11/27 08:10:17;;;;;;;7.50;2.80;;;;;;;;;;4420669;32;20366;-57
2021/11/27 08:12:43;;;;;;;3.33;2.53;;;;;;;;;;4420418;32;20277;-57
2021/11/27 08:15:09;;;;;;;5.17;2.90;;;;;;;;;;4420830;32;20587;-58
2021/11/27 08:17:39;;;;;;;3.70;2.47;;;;;;;;;;4420288;32;20229;-58
2021/11/27 08:20:06;;;;;;;2.73;2.07;;;;;;;;;;4420265;32;20280;-58
2021/11/27 08:22:31;;;;;;;7.53;3.53;;;;;;;;;;4420042;32;20209;-58
2021/11/27 08:24:57;;;;;;;3.03;2.70;;;;;;;;;;4419543;32;20265;-57
2021/11/27 08:27:27;;;;;;;5.27;3.17;;;;;;;;;;4420146;32;20217;-58
2021/11/27 08:29:53;;;;;;;5.13;2.97;;;;;;;;;;4418887;32;20263;-57
2021/11/27 08:32:18;;;;;;;3.03;2.33;;;;;;;;;;4417750;32;20232;-57
2021/11/27 08:34:43;;;;;;;4.80;2.77;;;;;;;;;;4416558;32;20260;-58
2021/11/27 08:37:09;;;;;;;4.53;1.93;;;;;;;;;;4416813;32;20307;-59
2021/11/27 08:39:34;;;;;;;4.57;2.50;;;;;;;;;;4417744;32;20366;-58
2021/11/27 08:42:00;;;;;;;5.63;2.70;;;;;;;;;;4420560;32;20342;-59
2021/11/27 08:44:25;;;;;;;9.87;4.47;;;;;;;;;;4421145;32;20252;-58
2021/11/27 08:46:51;;;;;;;3.90;2.57;;;;;;;;;;4420228;32;20231;-58
2021/11/27 08:49:16;;;;;;;3.90;2.50;;;;;;;;;;4419299;32;20229;-58
2021/11/27 08:51:43;;;;;;;10.17;3.63;;;;;;;;;;4419331;32;20236;-57
2021/11/27 08:54:09;;;;;;;4.37;2.17;;;;;;;;;;4420119;32;20236;-58
2021/11/27 08:56:35;;;;;;;3.13;2.10;;;;;;;;;;4419204;32;20240;-59
2021/11/27 08:59:01;;;;;;;3.70;2.27;;;;;;;;;;4420390;32;20298;-57
2021/11/27 09:01:27;;;;;;;4.30;2.20;;;;;;;;;;4420244;32;20236;-59
2021/11/27 09:03:53;;;;;;;2.00;1.50;;;;;;;;;;4418489;32;20271;-58
2021/11/27 09:06:19;;;;;;;4.40;2.10;;;;;;;;;;4429914;32;20264;-58
2021/11/27 09:08:44;;;;;;;4.33;2.00;;;;;;;;;;4418314;32;20237;-59
2021/11/27 09:11:13;;;;;;;2.63;1.97;;;;;;;;;;4417758;32;20686;-58
2021/11/27 09:13:40;;;;;;;4.30;2.40;;;;;;;;;;4418004;32;20233;-58
2021/11/27 09:16:07;;;;;;;2.73;1.93;;;;;;;;;;4417794;32;20236;-58
2021/11/27 09:18:32;;;;;;;3.50;2.33;;;;;;;;;;4417067;32;20237;-58
2021/11/27 09:20:59;;;;;;;4.00;2.40;;;;;;;;;;4419354;32;20689;-59
2021/11/27 09:23:24;;;;;;;15.37;2.63;;;;;;;;;;4419935;32;20282;-58
2021/11/27 09:25:50;;;;;;;3.07;2.03;;;;;;;;;;4419688;32;20299;-58
2021/11/27 09:28:15;;;;;;;3.83;2.87;;;;;;;;;;4419928;32;20388;-58
2021/11/27 09:30:41;;;;;;;4.67;2.57;;;;;;;;;;4419753;32;20333;-59
2021/11/27 09:33:06;;;;;;;4.43;2.63;;;;;;;;;;4419964;32;20232;-58
2021/11/27 09:35:32;;;;;;;3.80;2.53;;;;;;;;;;4419419;32;20352;-59
2021/11/27 09:37:57;;;;;;;3.53;2.20;;;;;;;;;;4419360;32;20273;-58
2021/11/27 09:40:24;;;;;;;4.13;2.27;;;;;;;;;;4418318;32;20284;-59
2021/11/27 09:42:51;;;;;;;2.57;2.37;;;;;;;;;;4417453;32;20205;-58
2021/11/27 09:45:23;;;;;;;3.47;2.30;;;;;;;;;;4417772;32;20227;-59
2021/11/27 09:47:49;;;;;;;6.67;3.93;;;;;;;;;;4413332;32;20309;-58
2021/11/27 09:50:14;;;;;;;8.97;4.83;;;;;;;;;;4402358;32;20273;-58
2021/11/27 09:52:40;;;;;;;6.63;3.57;;;;;;;;;;4403738;32;20264;-59
2021/11/27 09:55:06;;;;;;;7.40;2.93;;;;;;;;;;4409642;32;20554;-59
2021/11/27 09:57:31;;;;;;;18.27;8.50;;;;;;;;;;4419264;32;20197;-59
2021/11/27 09:59:57;;;;;;;4.33;3.23;;;;;;;;;;4418761;32;20330;-58
2021/11/27 10:02:23;;;;;;;4.03;2.70;;;;;;;;;;4413357;32;20221;-59
2021/11/27 10:04:53;;;;;;;7.80;3.70;;;;;;;;;;4404063;32;20664;-58
2021/11/27 10:07:20;;;;;;;13.13;6.07;;;;;;;;;;4403913;32;20577;-59
2021/11/27 10:09:47;;;;;;;44.00;23.40;;;;;;;;;;4408632;32;20255;-59
2021/11/27 10:12:13;;;;;;;2.80;2.53;;;;;;;;;;4419012;32;20514;-59
2021/11/27 10:14:40;;;;;;;9.47;5.53;;;;;;;;;;4418577;32;20221;-58
2021/11/27 10:17:09;;;;;;;6.90;4.57;;;;;;;;;;4418897;32;20602;-59
2021/11/27 10:19:57;;;;;;;4.23;2.37;;;;;;;;;;4418688;32;20583;-59
2021/11/27 10:22:27;;;;;;;4.07;2.20;;;;;;;;;;4417825;32;20622;-58
2021/11/27 10:24:53;;;;;;;6.10;3.90;;;;;;;;;;4417867;32;20252;-59
2021/11/27 10:27:24;;;;;;;8.80;3.47;;;;;;;;;;4416494;32;20209;-57
2021/11/27 10:30:19;;;;;;;5.23;4.03;;;;;;;;;;4417329;32;20629;-57
2021/11/27 10:32:46;;;;;;;5.47;4.33;;;;;;;;;;4418382;32;20251;-57
2021/11/27 10:35:16;;;;;;;9.03;3.93;;;;;;;;;;4415981;32;20279;-58
2021/11/27 10:37:46;;;;;;;6.13;2.63;;;;;;;;;;4418012;32;20197;-58
2021/11/27 10:40:38;;;;;;;5.10;2.97;;;;;;;;;;4418798;32;20212;-58
2021/11/27 10:43:10;;;;;;;5.23;2.43;;;;;;;;;;4416483;32;20271;-59
2021/11/27 10:45:38;;;;;;;5.57;3.00;;;;;;;;;;4430271;32;20240;-59
2021/11/27 10:48:39;;;;;;;7.47;2.67;;;;;;;;;;4418512;32;20241;-59
2021/11/27 10:51:05;;;;;;;3.07;2.13;;;;;;;;;;4417985;32;20205;-59
2021/11/27 10:53:35;;;;;;;4.47;3.10;;;;;;;;;;4418541;32;20692;-59
2021/11/27 10:56:09;;;;;;;3.03;1.80;;;;;;;;;;4418561;32;20295;-58
2021/11/27 10:58:56;;;;;;;4.17;2.17;;;;;;;;;;4418371;32;20736;-60
2021/11/27 11:01:22;;;;;;;3.33;1.90;;;;;;;;;;4416704;32;20260;-60
2021/11/27 11:03:47;;;;;;;5.60;2.93;;;;;;;;;;4415113;32;20283;-60
2021/11/27 11:06:25;;;;;;;3.57;2.10;;;;;;;;;;4417036;32;20315;-58
2021/11/27 11:08:52;;;;;;;15.10;7.47;;;;;;;;;;4429038;32;20320;-58
2021/11/27 11:11:20;;;;;;;3.40;2.10;;;;;;;;;;4417509;32;20240;-57
2021/11/27 11:13:58;;;;;;;6.07;3.10;;;;;;;;;;4418320;32;20267;-58
2021/11/27 11:16:29;;;;;;;5.50;3.40;;;;;;;;;;4417096;32;20258;-59
2021/11/27 11:19:14;;;;;;;8.87;5.10;;;;;;;;;;4416984;32;20270;-58
2021/11/27 11:22:09;;;;;;;4.97;3.70;;;;;;;;;;4418133;32;20189;-58
2021/11/27 11:24:37;;;;;;;4.17;2.47;;;;;;;;;;4418423;32;20277;-58
2021/11/27 11:27:07;;;;;;;4.27;3.10;;;;;;;;;;4418989;32;20201;-59
2021/11/27 11:29:46;;;;;;;8.57;5.73;;;;;;;;;;4418299;32;20689;-58
2021/11/27 11:32:32;;;;;;;7.47;3.80;;;;;;;;;;4418284;32;20613;-59
2021/11/27 11:35:02;;;;;;;5.90;2.90;;;;;;;;;;4417733;32;20264;-60
2021/11/27 11:37:28;;;;;;;28.70;15.03;;;;;;;;;;4415797;32;20231;-58
2021/11/27 11:39:55;;;;;;;15.53;8.20;;;;;;;;;;4412751;32;20276;-61
2021/11/27 11:42:24;;;;;;;3.63;2.03;;;;;;;;;;4401982;32;20647;-59
2021/11/27 11:44:50;;;;;;;9.90;4.13;;;;;;;;;;4402032;32;20269;-58
2021/11/27 11:47:15;;;;;;;10.43;4.13;;;;;;;;;;4402604;32;20213;-57
2021/11/27 11:49:42;;;;;;;3.43;2.10;;;;;;;;;;4403038;32;20256;-59
2021/11/27 11:52:28;;;;;;;5.27;2.50;;;;;;;;;;4402966;32;20194;-58
2021/11/27 11:55:06;;;;;;;3.70;1.53;;;;;;;;;;4402880;32;20619;-58
2021/11/27 11:57:40;;;;;;;4.20;1.77;;;;;;;;;;4403103;32;20244;-58
2021/11/27 12:00:31;;;;;;;2.33;1.70;;;;;;;;;;4403267;32;20185;-59
2021/11/27 12:03:14;;;;;;;2.70;1.87;;;;;;;;;;4400372;32;20483;-58
2021/11/27 12:05:55;;;;;;;3.37;2.37;;;;;;;;;;4401538;32;20197;-58
2021/11/27 12:08:51;;;;;;;2.63;1.40;;;;;;;;;;4402870;32;20421;-59
2021/11/27 12:11:41;;;;;;;6.63;2.37;;;;;;;;;;4411503;32;20316;-59
2021/11/27 12:14:22;;;;;;;5.27;3.30;;;;;;;;;;4417133;32;20237;-57
2021/11/27 12:17:19;;;;;;;7.37;2.70;;;;;;;;;;4414864;32;20201;-59
2021/11/27 12:19:49;;;;;;;4.43;2.27;;;;;;;;;;4413197;32;20555;-58
2021/11/27 12:22:26;;;;;;;1.77;1.67;;;;;;;;;;4413307;32;20292;-58
2021/11/27 12:25:09;;;;;;;2.77;1.57;;;;;;;;;;4414699;32;20586;-59
2021/11/27 12:28:08;;;;;;;1.77;1.47;;;;;;;;;;4416649;32;20233;-58
2021/11/27 12:30:45;;;;;;;2.57;1.50;;;;;;;;;;4418120;32;20259;-59
2021/11/27 12:33:45;;;;;;;3.43;1.90;;;;;;;;;;4418056;32;20324;-58
2021/11/27 12:36:26;;;;;;;4.90;1.57;;;;;;;;;;4416697;32;20323;-58
2021/11/27 12:39:17;;;;;;;2.73;1.80;;;;;;;;;;4417799;32;20654;-59
2021/11/27 12:41:53;;;;;;;2.10;1.23;;;;;;;;;;4417194;32;20220;-58
2021/11/27 12:44:25;;;;;;;7.43;1.77;;;;;;;;;;4417368;32;20297;-59
2021/11/27 12:47:13;;;;;;;7.53;1.63;;;;;;;;;;4417493;32;20371;-58
2021/11/27 12:49:39;;;;;;;1.63;1.33;;;;;;;;;;4413770;32;20272;-60
2021/11/27 12:52:10;;;;;;;3.80;1.40;;;;;;;;;;4417695;32;20323;-57
2021/11/27 12:54:37;;;;;;;2.30;1.20;;;;;;;;;;4419261;32;20320;-59
2021/11/27 12:57:02;;;;;;;1.80;1.30;;;;;;;;;;4418322;32;20248;-58
2021/11/27 12:59:27;;;;;;;1.93;1.43;;;;;;;;;;4418876;32;20255;-58
2021/11/27 13:01:53;;;;;;;14.00;4.87;;;;;;;;;;4416371;32;20312;-59
2021/11/27 13:04:20;;;;;;;4.60;2.83;;;;;;;;;;4417891;32;20592;-58
2021/11/27 13:06:46;;;;;;;9.93;2.10;;;;;;;;;;4420060;32;20200;-59
2021/11/27 13:09:15;;;;;;;4.03;2.43;;;;;;;;;;4431908;32;20225;-58
2021/11/27 13:11:49;;;;;;;4.90;2.83;;;;;;;;;;4420736;32;20328;-60
2021/11/27 13:14:27;;;;;;;6.37;2.47;;;;;;;;;;4418910;32;20277;-59
2021/11/27 13:17:02;;;;;;;2.80;2.03;;;;;;;;;;4417114;32;20233;-58
2021/11/27 13:19:30;;;;;;;2.60;1.83;;;;;;;;;;4420258;32;20220;-59
2021/11/27 13:22:04;;;;;;;3.07;1.93;;;;;;;;;;4418721;32;20326;-60
2021/11/27 13:24:31;;;;;;;4.53;1.77;;;;;;;;;;4418005;32;20245;-58
2021/11/27 13:26:57;;;;;;;3.30;2.27;;;;;;;;;;4418683;32;20209;-59
2021/11/27 13:29:26;;;;;;;2.63;1.83;;;;;;;;;;4419024;32;20263;-58
2021/11/27 13:31:52;;;;;;;9.30;2.57;;;;;;;;;;4419505;32;20292;-58
2021/11/27 13:34:18;;;;;;;4.97;3.23;;;;;;;;;;4420587;32;20311;-59
2021/11/27 13:36:46;;;;;;;2.73;1.50;;;;;;;;;;4431636;32;20243;-59
2021/11/27 13:39:17;;;;;;;6.43;3.97;;;;;;;;;;4420428;32;20228;-58
2021/11/27 13:41:46;;;;;;;7.33;3.67;;;;;;;;;;4420163;32;20569;-58
2021/11/27 13:44:11;;;;;;;4.13;2.37;;;;;;;;;;4420611;32;20739;-58
2021/11/27 13:46:58;;;;;;;9.83;2.67;;;;;;;;;;4420080;32;20201;-59
2021/11/27 13:49:31;;;;;;;8.37;2.00;;;;;;;;;;4420876;32;20252;-59
2021/11/27 13:51:59;;;;;;;7.37;2.30;;;;;;;;;;4420032;32;20201;-59
2021/11/27 13:54:28;;;;;;;4.80;2.13;;;;;;;;;;4420469;32;20232;-58
2021/11/27 13:56:54;;;;;;;6.73;3.13;;;;;;;;;;4420128;32;20233;-59
2021/11/27 13:59:34;;;;;;;1.83;1.60;;;;;;;;;;4420237;32;20243;-59
2021/11/27 14:02:03;;;;;;;3.60;2.20;;;;;;;;;;4429949;32;20309;-59
2021/11/27 14:04:29;;;;;;;7.00;3.80;;;;;;;;;;4419878;32;20225;-59
2021/11/27 14:06:56;;;;;;;5.27;3.10;;;;;;;;;;4418619;32;20260;-59
2021/11/27 14:09:21;;;;;;;5.57;2.50;;;;;;;;;;4418817;32;20388;-59
2021/11/27 14:11:47;;;;;;;5.23;2.90;;;;;;;;;;4419145;32;20216;-60
2021/11/27 14:14:13;;;;;;;4.83;2.20;;;;;;;;;;4419173;32;20256;-60
2021/11/27 14:16:40;;;;;;;6.30;3.37;;;;;;;;;;4418729;32;20193;-60
2021/11/27 14:19:12;;;;;;;4.83;3.07;;;;;;;;;;4418750;32;20294;-59
2021/11/27 14:21:38;;;;;;;10.33;3.20;;;;;;;;;;4418146;32;20602;-59
2021/11/27 14:24:15;;;;;;;8.70;3.40;;;;;;;;;;4419465;32;20660;-59
2021/11/27 14:26:47;;;;;;;5.03;3.43;;;;;;;;;;4417338;32;20440;-58
2021/11/27 14:29:17;;;;;;;4.27;2.17;;;;;;;;;;4409459;32;20233;-59
2021/11/27 14:31:43;;;;;;;5.60;2.53;;;;;;;;;;4387721;32;20308;-59
2021/11/27 14:34:11;;;;;;;10.10;2.87;;;;;;;;;;4401781;32;20268;-58
2021/11/27 14:36:40;;;;;;;5.23;2.20;;;;;;;;;;4402587;32;20209;-59
2021/11/27 14:39:18;;;;;;;6.23;2.50;;;;;;;;;;4402749;32;20292;-58
2021/11/27 14:41:44;;;;;;;4.90;2.67;;;;;;;;;;4402299;32;20225;-57
2021/11/27 14:44:25;;;;;;;6.00;2.80;;;;;;;;;;4403755;32;20395;-60
2021/11/27 14:46:57;;;;;;;3.93;2.70;;;;;;;;;;4403375;32;20323;-58
2021/11/27 14:49:37;;;;;;;3.47;2.37;;;;;;;;;;4403489;32;20248;-58